createdAt,value
2018-11-13T00:00:24.981Z,1.43
2018-11-13T00:02:54.007Z,1.40
2018-11-13T00:05:23.004Z,1.40
2018-11-13T00:07:51.545Z,1.17
2018-11-13T00:10:33.853Z,1.20
2018-11-13T00:13:02.612Z,1.00
2018-11-13T00:15:31.028Z,1.03
2018-11-13T00:17:59.457Z,1.23
2018-11-13T00:20:27.930Z,1.17
2018-11-13T00:22:56.675Z,1.00
2018-11-13T00:25:25.101Z,1.17
2018-11-13T00:27:53.525Z,1.17
2018-11-13T00:30:23.479Z,1.33
2018-11-13T00:32:52.175Z,1.23
2018-11-13T00:35:21.247Z,1.20
2018-11-13T00:37:50.267Z,1.40
2018-11-13T00:40:19.252Z,1.20
2018-11-13T00:42:47.962Z,1.37
2018-11-13T00:45:16.452Z,1.40
2018-11-13T00:47:44.830Z,1.10
2018-11-13T00:50:16.158Z,1.17
2018-11-13T00:52:45.145Z,1.37
2018-11-13T00:55:13.717Z,1.37
2018-11-13T00:57:42.465Z,1.10
2018-11-13T01:00:14.575Z,1.47
2018-11-13T01:02:43.280Z,1.40
2018-11-13T01:05:13.544Z,1.40
2018-11-13T01:07:42.820Z,1.40
2018-11-13T01:10:13.594Z,1.30
2018-11-13T01:12:43.392Z,1.50
2018-11-13T01:15:13.357Z,1.30
2018-11-13T01:17:42.920Z,1.37
2018-11-13T01:20:11.550Z,1.50
2018-11-13T01:22:39.946Z,1.80
2018-11-13T01:25:09.835Z,1.50
2018-11-13T01:27:38.276Z,1.53
2018-11-13T01:30:08.959Z,1.43
2018-11-13T01:32:39.625Z,1.43
2018-11-13T01:35:10.151Z,1.80
2018-11-13T01:37:38.579Z,1.47
2018-11-13T01:40:17.234Z,1.40
2018-11-13T01:42:46.263Z,1.30
2018-11-13T01:45:15.851Z,1.47
2018-11-13T01:47:44.338Z,1.30
2018-11-13T01:50:13.660Z,1.67
2018-11-13T01:52:42.093Z,1.50
2018-11-13T01:55:11.901Z,1.47
2018-11-13T01:57:40.448Z,1.50
2018-11-13T02:00:15.817Z,1.70
2018-11-13T02:02:45.358Z,1.60
2018-11-13T02:05:13.822Z,1.50
2018-11-13T02:07:42.347Z,1.70
2018-11-13T02:10:11.025Z,1.50
2018-11-13T02:12:39.526Z,1.40
2018-11-13T02:15:08.835Z,1.63
2018-11-13T02:17:37.457Z,1.20
2018-11-13T02:20:09.353Z,1.20
2018-11-13T02:22:37.922Z,1.20
2018-11-13T02:25:09.295Z,1.07
2018-11-13T02:27:37.960Z,1.00
2018-11-13T02:30:08.438Z,1.00
2018-11-13T02:32:36.907Z,1.03
2018-11-13T02:35:06.661Z,1.00
2018-11-13T02:37:35.125Z,0.87
2018-11-13T02:40:03.894Z,1.03
2018-11-13T02:42:32.706Z,1.00
2018-11-13T02:45:01.345Z,0.80
2018-11-13T02:47:29.902Z,0.87
2018-11-13T02:49:58.349Z,0.70
2018-11-13T02:55:06.941Z,0.70
2018-11-13T02:57:35.416Z,0.90
2018-11-13T03:00:06.717Z,0.80
2018-11-13T03:02:35.141Z,0.90
2018-11-13T03:05:05.040Z,0.70
2018-11-13T03:07:33.459Z,0.70
2018-11-13T03:10:02.082Z,0.77
2018-11-13T03:12:30.694Z,0.70
2018-11-13T03:14:59.107Z,0.60
2018-11-13T03:17:27.549Z,0.77
2018-11-13T03:19:56.040Z,0.60
2018-11-13T03:22:24.485Z,0.77
2018-11-13T03:24:53.398Z,0.70
2018-11-13T03:27:21.855Z,0.70
2018-11-13T03:29:50.433Z,0.73
2018-11-13T03:32:18.924Z,0.70
2018-11-13T03:34:47.351Z,0.50
2018-11-13T03:37:16.089Z,0.77
2018-11-13T03:39:45.837Z,0.67
2018-11-13T03:42:14.273Z,0.70
2018-11-13T03:44:42.687Z,0.60
2018-11-13T03:47:11.092Z,0.60
2018-11-13T03:49:39.506Z,0.63
2018-11-13T03:52:08.012Z,0.90
2018-11-13T03:54:36.415Z,0.63
2018-11-13T03:57:04.956Z,0.57
2018-11-13T03:59:33.390Z,0.60
2018-11-13T04:02:02.063Z,0.60
2018-11-13T04:04:30.920Z,0.60
2018-11-13T04:06:59.337Z,0.70
2018-11-13T04:09:27.754Z,0.63
2018-11-13T04:11:56.203Z,0.60
2018-11-13T04:14:24.612Z,0.60
2018-11-13T04:16:53.057Z,0.60
2018-11-13T04:19:21.503Z,0.77
2018-11-13T04:21:54.609Z,0.50
2018-11-13T04:24:23.036Z,0.60
2018-11-13T04:26:51.491Z,0.50
2018-11-13T04:29:20.118Z,0.50
2018-11-13T04:31:48.567Z,0.60
2018-11-13T04:34:16.989Z,0.40
2018-11-13T04:36:45.558Z,0.70
2018-11-13T04:39:14.071Z,0.70
2018-11-13T04:41:42.528Z,0.80
2018-11-13T04:44:11.033Z,0.60
2018-11-13T04:46:39.626Z,0.70
2018-11-13T04:49:08.095Z,0.60
2018-11-13T04:51:36.580Z,0.60
2018-11-13T04:54:05.436Z,0.60
2018-11-13T04:56:34.024Z,0.50
2018-11-13T04:59:03.117Z,0.57
2018-11-13T05:01:31.558Z,0.40
2018-11-13T05:04:00.000Z,0.50
2018-11-13T05:06:29.080Z,0.60
2018-11-13T05:08:57.769Z,0.43
2018-11-13T05:11:27.054Z,0.40
2018-11-13T05:13:55.530Z,0.33
2018-11-13T05:16:24.043Z,0.43
2018-11-13T05:18:52.440Z,0.50
2018-11-13T05:21:20.849Z,0.40
2018-11-13T05:23:49.276Z,0.50
2018-11-13T05:26:17.726Z,0.43
2018-11-13T05:28:46.425Z,0.57
2018-11-13T05:31:14.841Z,0.63
2018-11-13T05:33:43.275Z,0.70
2018-11-13T05:36:12.045Z,0.60
2018-11-13T05:38:40.466Z,0.60
2018-11-13T05:41:09.051Z,0.70
2018-11-13T05:43:37.483Z,0.80
2018-11-13T05:46:06.169Z,0.80
2018-11-13T05:48:34.807Z,0.80
2018-11-13T05:51:03.345Z,0.53
2018-11-13T05:53:31.775Z,0.63
2018-11-13T05:56:00.185Z,0.60
2018-11-13T05:58:28.804Z,0.60
2018-11-13T06:00:57.339Z,0.50
2018-11-13T06:03:25.760Z,0.63
2018-11-13T06:05:54.337Z,0.50
2018-11-13T06:08:22.776Z,0.70
2018-11-13T06:10:51.255Z,0.40
2018-11-13T06:13:19.675Z,0.50
2018-11-13T06:15:48.279Z,0.50
2018-11-13T06:18:16.903Z,0.47
2018-11-13T06:20:45.316Z,0.50
2018-11-13T06:23:13.805Z,0.60
2018-11-13T06:25:42.182Z,0.43
2018-11-13T06:28:10.979Z,0.50
2018-11-13T06:30:39.437Z,0.40
2018-11-13T06:33:07.838Z,0.40
2018-11-13T06:35:36.259Z,0.40
2018-11-13T06:38:04.860Z,1.10
2018-11-13T06:40:33.284Z,0.67
2018-11-13T06:43:01.941Z,0.50
2018-11-13T06:45:30.372Z,0.50
2018-11-13T06:47:58.716Z,0.50
2018-11-13T06:50:27.297Z,0.60
2018-11-13T06:52:55.706Z,0.40
2018-11-13T06:55:27.187Z,0.50
2018-11-13T06:57:55.647Z,0.43
2018-11-13T07:00:25.001Z,0.60
2018-11-13T07:02:53.431Z,0.60
2018-11-13T07:05:21.801Z,0.60
2018-11-13T07:07:50.575Z,0.40
2018-11-13T07:10:20.450Z,0.70
2018-11-13T07:12:49.655Z,0.73
2018-11-13T07:15:19.450Z,0.90
2018-11-13T07:17:49.052Z,0.70
2018-11-13T07:20:18.590Z,0.60
2018-11-13T07:22:47.071Z,0.43
2018-11-13T07:25:15.555Z,0.57
2018-11-13T07:27:44.767Z,0.57
2018-11-13T07:30:14.454Z,0.80
2018-11-13T07:32:42.989Z,0.57
2018-11-13T07:35:13.556Z,0.50
2018-11-13T07:37:44.778Z,0.50
2018-11-13T07:40:13.246Z,0.47
2018-11-13T07:42:41.743Z,0.43
2018-11-13T07:45:12.718Z,0.60
2018-11-13T07:47:42.177Z,0.60
2018-11-13T07:50:11.339Z,0.60
2018-11-13T07:52:39.720Z,0.70
2018-11-13T07:55:09.698Z,0.50
2018-11-13T07:57:38.198Z,0.50
2018-11-13T08:00:18.047Z,0.50
2018-11-13T08:02:47.852Z,0.40
2018-11-13T08:05:16.453Z,0.27
2018-11-13T08:07:44.934Z,0.40
2018-11-13T08:10:13.616Z,0.50
2018-11-13T08:12:42.092Z,0.83
2018-11-13T08:15:13.250Z,0.60
2018-11-13T08:17:42.138Z,0.33
2018-11-13T08:20:13.032Z,0.60
2018-11-13T08:22:41.862Z,0.47
2018-11-13T08:25:10.937Z,0.60
2018-11-13T08:27:40.062Z,0.50
2018-11-13T08:30:12.616Z,0.60
2018-11-13T08:32:41.434Z,0.40
2018-11-13T08:35:09.957Z,0.43
2018-11-13T08:37:38.507Z,0.40
2018-11-13T08:40:10.556Z,0.60
2018-11-13T08:42:39.070Z,0.30
2018-11-13T08:45:08.639Z,0.40
2018-11-13T08:47:37.071Z,0.47
2018-11-13T08:50:05.939Z,0.40
2018-11-13T08:52:34.373Z,0.40
2018-11-13T08:55:03.080Z,0.40
2018-11-13T08:57:31.561Z,0.50
2018-11-13T09:00:00.106Z,0.57
2018-11-13T09:02:32.264Z,0.30
2018-11-13T09:05:00.865Z,0.50
2018-11-13T09:07:29.294Z,0.50
2018-11-13T09:09:57.721Z,0.43
2018-11-13T09:12:26.248Z,0.63
2018-11-13T09:14:55.000Z,0.37
2018-11-13T09:17:23.433Z,0.43
2018-11-13T09:19:51.862Z,0.40
2018-11-13T09:22:20.263Z,0.63
2018-11-13T09:24:48.645Z,0.40
2018-11-13T09:27:17.101Z,0.47
2018-11-13T09:29:45.528Z,0.50
2018-11-13T09:32:13.916Z,0.60
2018-11-13T09:34:42.339Z,0.70
2018-11-13T09:37:10.777Z,0.47
2018-11-13T09:39:39.167Z,0.50
2018-11-13T09:42:07.619Z,0.57
2018-11-13T09:44:35.991Z,0.50
2018-11-13T09:47:04.678Z,0.50
2018-11-13T09:49:33.088Z,0.50
2018-11-13T09:52:01.508Z,0.57
2018-11-13T09:54:29.966Z,0.40
2018-11-13T09:56:58.418Z,0.80
2018-11-13T09:59:26.880Z,0.50
2018-11-13T10:01:55.689Z,0.70
2018-11-13T10:04:24.284Z,0.63
2018-11-13T10:06:52.164Z,0.60
2018-11-13T10:09:20.601Z,0.60
2018-11-13T10:11:49.057Z,0.67
2018-11-13T10:14:17.455Z,0.60
2018-11-13T10:16:45.851Z,0.90
2018-11-13T10:19:14.264Z,0.90
2018-11-13T10:21:42.641Z,1.00
2018-11-13T10:24:11.047Z,1.30
2018-11-13T10:26:39.440Z,0.87
2018-11-13T10:29:07.865Z,0.90
2018-11-13T10:31:36.242Z,1.20
2018-11-13T10:34:04.783Z,1.50
2018-11-13T10:36:33.179Z,1.13
2018-11-13T10:39:01.593Z,1.00
2018-11-13T10:41:30.238Z,1.17
2018-11-13T10:43:58.509Z,1.20
2018-11-13T10:46:26.926Z,0.70
2018-11-13T10:48:55.417Z,0.50
2018-11-13T10:51:23.751Z,0.70
2018-11-13T10:53:52.141Z,0.47
2018-11-13T10:56:20.544Z,0.50
2018-11-13T10:58:56.087Z,0.70
2018-11-13T11:01:30.280Z,0.60
2018-11-13T11:05:06.406Z,0.40
2018-11-13T11:07:34.802Z,0.50
2018-11-13T11:10:04.097Z,0.40
2018-11-13T11:12:32.533Z,0.50
2018-11-13T11:15:00.919Z,0.70
2018-11-13T11:17:29.335Z,0.47
2018-11-13T11:19:57.752Z,0.50
2018-11-13T11:22:26.599Z,0.43
2018-11-13T11:24:55.286Z,0.50
2018-11-13T11:27:23.704Z,0.60
2018-11-13T11:29:52.685Z,0.60
2018-11-13T11:32:21.131Z,0.63
2018-11-13T11:34:49.586Z,0.60
2018-11-13T11:37:17.992Z,0.67
2018-11-13T11:39:46.450Z,0.70
2018-11-13T11:42:14.862Z,0.70
2018-11-13T11:44:43.332Z,0.87
2018-11-13T11:47:11.762Z,0.70
2018-11-13T11:49:40.202Z,0.60
2018-11-13T11:52:08.623Z,0.60
2018-11-13T11:54:37.047Z,0.70
2018-11-13T11:57:05.757Z,0.80
2018-11-13T11:59:34.145Z,0.63
2018-11-13T12:02:02.645Z,0.97
2018-11-13T12:04:31.068Z,0.67
2018-11-13T12:06:59.685Z,0.70
2018-11-13T12:09:28.079Z,0.70
2018-11-13T12:11:56.679Z,0.53
2018-11-13T12:14:25.527Z,0.90
2018-11-13T12:16:53.942Z,0.80
2018-11-13T12:19:22.378Z,0.70
2018-11-13T12:21:50.935Z,0.70
2018-11-13T12:24:19.724Z,0.73
2018-11-13T12:26:48.149Z,0.60
2018-11-13T12:29:16.549Z,0.60
2018-11-13T12:31:45.000Z,0.80
2018-11-13T12:34:13.680Z,0.60
2018-11-13T12:36:42.059Z,0.70
2018-11-13T12:39:11.176Z,0.63
2018-11-13T12:41:40.824Z,0.70
2018-11-13T12:44:09.577Z,0.70
2018-11-13T12:46:38.277Z,0.70
2018-11-13T12:49:06.626Z,0.60
2018-11-13T12:51:39.639Z,0.50
2018-11-13T12:54:08.134Z,0.50
2018-11-13T12:56:36.596Z,0.60
2018-11-13T12:59:05.091Z,0.50
2018-11-13T13:01:33.497Z,0.50
2018-11-13T13:04:01.945Z,0.70
2018-11-13T13:06:30.324Z,0.80
2018-11-13T13:08:58.711Z,0.90
2018-11-13T13:11:27.134Z,0.50
2018-11-13T13:14:01.177Z,0.77
2018-11-13T13:16:29.600Z,0.50
2018-11-13T13:18:58.041Z,0.57
2018-11-13T13:21:26.421Z,0.60
2018-11-13T13:23:54.862Z,0.50
2018-11-13T13:26:23.471Z,0.50
2018-11-13T13:28:51.931Z,0.53
2018-11-13T13:31:20.356Z,0.60
2018-11-13T13:33:48.786Z,0.60
2018-11-13T13:36:20.579Z,0.80
2018-11-13T13:38:49.260Z,0.60
2018-11-13T13:41:17.619Z,0.63
2018-11-13T13:43:46.050Z,0.50
2018-11-13T13:46:14.531Z,0.60
2018-11-13T13:48:43.264Z,0.47
2018-11-13T13:51:11.709Z,0.50
2018-11-13T13:53:40.230Z,0.50
2018-11-13T13:56:08.649Z,0.50
2018-11-13T13:58:37.053Z,0.53
2018-11-13T14:01:05.648Z,0.60
2018-11-13T14:03:34.784Z,0.50
2018-11-13T14:06:02.610Z,0.60
2018-11-13T14:08:30.984Z,0.40
2018-11-13T14:10:59.446Z,0.37
2018-11-13T14:13:27.871Z,0.50
2018-11-13T14:15:56.420Z,0.40
2018-11-13T14:18:24.834Z,0.47
2018-11-13T14:20:53.282Z,0.50
2018-11-13T14:23:21.685Z,0.43
2018-11-13T14:25:50.089Z,0.70
2018-11-13T14:28:18.526Z,0.63
2018-11-13T14:30:47.027Z,0.50
2018-11-13T14:33:15.447Z,0.50
2018-11-13T14:35:44.002Z,0.50
2018-11-13T14:38:12.334Z,0.60
2018-11-13T14:40:42.055Z,0.50
2018-11-13T14:43:10.754Z,0.50
2018-11-13T14:45:39.230Z,0.60
2018-11-13T14:48:08.524Z,0.60
2018-11-13T14:50:37.457Z,0.50
2018-11-13T14:53:07.040Z,0.60
2018-11-13T14:55:36.942Z,0.60
2018-11-13T14:58:07.312Z,0.50
2018-11-13T15:00:42.735Z,0.60
2018-11-13T15:03:12.616Z,0.60
2018-11-13T15:05:41.968Z,0.60
2018-11-13T15:08:10.841Z,0.60
2018-11-13T15:10:47.724Z,0.50
2018-11-13T15:13:16.594Z,0.60
2018-11-13T15:15:45.036Z,0.63
2018-11-13T15:18:17.497Z,0.70
2018-11-13T15:20:46.675Z,0.60
2018-11-13T15:23:16.424Z,0.80
2018-11-13T15:25:44.872Z,0.70
2018-11-13T15:28:13.629Z,0.60
2018-11-13T15:30:46.130Z,0.70
2018-11-13T15:33:20.775Z,0.90
2018-11-13T15:35:49.870Z,0.60
2018-11-13T15:38:18.386Z,0.70
2018-11-13T15:40:46.923Z,0.50
2018-11-13T15:43:15.381Z,0.70
2018-11-13T15:45:43.809Z,1.80
2018-11-13T15:48:13.174Z,1.40
2018-11-13T15:50:41.595Z,1.20
2018-11-13T15:53:10.452Z,0.90
2018-11-13T15:55:38.927Z,0.93
2018-11-13T15:58:07.739Z,1.00
2018-11-13T16:00:37.523Z,1.23
2018-11-13T16:03:15.929Z,0.90
2018-11-13T16:05:46.839Z,0.83
2018-11-13T16:08:15.269Z,1.00
2018-11-13T16:10:43.717Z,0.70
2018-11-13T16:13:12.321Z,0.83
2018-11-13T16:15:41.247Z,0.70
2018-11-13T16:18:11.695Z,0.80
2018-11-13T16:20:40.140Z,1.00
2018-11-13T16:23:08.643Z,0.87
2018-11-13T16:25:37.118Z,1.10
2018-11-13T16:28:05.642Z,0.90
2018-11-13T16:30:35.479Z,0.93
2018-11-13T16:33:04.118Z,1.03
2018-11-13T16:35:32.862Z,1.00
2018-11-13T16:38:02.798Z,1.20
2018-11-13T16:40:32.228Z,0.90
2018-11-13T16:43:01.075Z,1.00
2018-11-13T16:45:30.620Z,1.30
2018-11-13T16:47:59.672Z,0.87
2018-11-13T16:50:29.313Z,1.00
2018-11-13T16:52:58.332Z,1.07
2018-11-13T16:55:32.649Z,1.10
2018-11-13T16:58:02.325Z,1.10
2018-11-13T17:00:31.350Z,1.10
2018-11-13T17:03:00.088Z,1.10
2018-11-13T17:05:29.209Z,1.17
2018-11-13T17:07:57.686Z,1.10
2018-11-13T17:10:27.386Z,1.17
2018-11-13T17:12:56.453Z,1.10
2018-11-13T17:15:26.205Z,1.10
2018-11-13T17:17:55.794Z,0.97
2018-11-13T17:20:24.906Z,0.80
2018-11-13T17:22:53.359Z,0.80
2018-11-13T17:25:23.317Z,0.90
2018-11-13T17:27:52.715Z,0.77
2018-11-13T17:30:24.968Z,0.80
2018-11-13T17:32:54.652Z,0.73
2018-11-13T17:35:24.393Z,0.77
2018-11-13T17:37:54.313Z,0.80
2018-11-13T17:40:24.011Z,1.00
2018-11-13T17:42:53.853Z,0.73
2018-11-13T17:45:24.757Z,0.70
2018-11-13T17:47:53.227Z,0.80
2018-11-13T17:50:24.848Z,0.87
2018-11-13T17:52:53.370Z,0.90
2018-11-13T17:55:23.023Z,0.90
2018-11-13T17:57:54.663Z,0.90
2018-11-13T18:00:26.972Z,0.90
2018-11-13T18:02:55.750Z,0.80
2018-11-13T18:05:25.388Z,0.90
2018-11-13T18:07:54.639Z,0.90
2018-11-13T18:10:23.341Z,0.80
2018-11-13T18:12:52.047Z,0.97
2018-11-13T18:15:22.946Z,0.93
2018-11-13T18:17:52.016Z,1.10
2018-11-13T18:20:23.102Z,0.90
2018-11-13T18:22:51.715Z,1.00
2018-11-13T18:25:20.211Z,1.20
2018-11-13T18:27:50.116Z,1.20
2018-11-13T18:30:21.854Z,1.00
2018-11-13T18:32:50.602Z,1.00
2018-11-13T18:35:22.191Z,0.93
2018-11-13T18:37:51.652Z,1.00
2018-11-13T18:40:20.885Z,0.97
2018-11-13T18:42:50.284Z,1.23
2018-11-13T18:45:21.960Z,1.10
2018-11-13T18:47:50.704Z,1.10
2018-11-13T18:50:23.834Z,0.90
2018-11-13T18:52:52.266Z,1.00
2018-11-13T18:55:20.841Z,1.23
2018-11-13T18:57:49.288Z,0.93
2018-11-13T19:00:24.437Z,1.10
2018-11-13T19:02:52.975Z,1.20
2018-11-13T19:05:22.053Z,1.17
2018-11-13T19:07:50.717Z,1.07
2018-11-13T19:10:25.470Z,1.20
2018-11-13T19:12:55.644Z,1.10
2018-11-13T19:15:24.565Z,0.90
2018-11-13T19:17:53.594Z,1.03
2018-11-13T19:20:23.193Z,1.13
2018-11-13T19:22:52.067Z,1.03
2018-11-13T19:25:22.024Z,1.20
2018-11-13T19:27:51.017Z,1.13
2018-11-13T19:30:20.463Z,1.00
2018-11-13T19:32:48.792Z,1.23
2018-11-13T19:35:18.543Z,1.30
2018-11-13T19:37:47.136Z,1.13
2018-11-13T19:40:19.315Z,1.20
2018-11-13T19:42:48.601Z,1.10
2018-11-13T19:45:17.633Z,1.10
2018-11-13T19:47:46.216Z,1.20
2018-11-13T19:50:20.863Z,1.30
2018-11-13T19:52:49.352Z,1.20
2018-11-13T19:55:18.563Z,1.40
2018-11-13T19:57:47.361Z,1.30
2018-11-13T20:00:18.279Z,1.27
2018-11-13T20:02:47.795Z,1.10
2018-11-13T20:05:16.534Z,1.17
2018-11-13T20:07:45.947Z,1.10
2018-11-13T20:10:21.103Z,1.10
2018-11-13T20:12:50.644Z,1.40
2018-11-13T20:15:20.098Z,1.20
2018-11-13T20:17:48.630Z,1.10
2018-11-13T20:20:19.228Z,0.90
2018-11-13T20:22:48.794Z,1.10
2018-11-13T20:25:18.654Z,0.97
2018-11-13T20:27:47.499Z,1.20
2018-11-13T20:30:22.969Z,1.10
2018-11-13T20:32:51.454Z,1.10
2018-11-13T20:35:19.948Z,1.20
2018-11-13T20:37:49.172Z,0.87
2018-11-13T20:40:23.105Z,1.10
2018-11-13T20:42:53.040Z,0.90
2018-11-13T20:45:22.129Z,0.87
2018-11-13T20:47:50.693Z,1.00
2018-11-13T20:50:23.682Z,1.10
2018-11-13T20:52:52.174Z,1.17
2018-11-13T20:55:20.658Z,1.10
2018-11-13T20:57:49.102Z,1.20
2018-11-13T21:00:27.223Z,1.03
2018-11-13T21:02:55.764Z,1.10
2018-11-13T21:05:24.305Z,1.10
2018-11-13T21:07:52.857Z,1.00
2018-11-13T21:10:22.066Z,1.40
2018-11-13T21:12:51.576Z,1.00
2018-11-13T21:15:21.001Z,1.00
2018-11-13T21:17:49.466Z,1.20
2018-11-13T21:20:18.751Z,1.23
2018-11-13T21:22:47.375Z,1.07
2018-11-13T21:25:18.568Z,1.10
2018-11-13T21:27:55.466Z,1.40
2018-11-13T21:30:24.339Z,1.20
2018-11-13T21:32:53.132Z,1.17
2018-11-13T21:35:21.593Z,1.07
2018-11-13T21:37:51.350Z,1.10
2018-11-13T21:40:21.162Z,1.00
2018-11-13T21:42:50.724Z,1.03
2018-11-13T21:45:20.255Z,1.10
2018-11-13T21:47:48.774Z,1.00
2018-11-13T21:50:18.480Z,1.20
2018-11-13T21:52:46.929Z,1.30
2018-11-13T21:55:17.634Z,1.20
2018-11-13T21:57:46.260Z,1.27
2018-11-13T22:00:20.451Z,1.10
2018-11-13T22:02:51.610Z,1.10
2018-11-13T22:05:20.816Z,1.30
2018-11-13T22:07:49.254Z,1.10
2018-11-13T22:10:17.813Z,0.97
2018-11-13T22:12:46.735Z,1.10
2018-11-13T22:15:16.728Z,1.03
2018-11-13T22:17:45.593Z,1.10
2018-11-13T22:20:14.897Z,1.30
2018-11-13T22:22:43.535Z,1.20
2018-11-13T22:25:15.820Z,1.00
2018-11-13T22:27:45.474Z,1.00
2018-11-13T22:30:18.046Z,1.13
2018-11-13T22:32:46.811Z,1.00
2018-11-13T22:35:15.709Z,1.00
2018-11-13T22:37:44.357Z,1.00
2018-11-13T22:40:17.036Z,1.10
2018-11-13T22:42:45.763Z,1.10
2018-11-13T22:45:16.193Z,1.03
2018-11-13T22:47:44.585Z,1.10
2018-11-13T22:50:18.458Z,1.00
2018-11-13T22:52:47.190Z,1.30
2018-11-13T22:55:15.964Z,0.80
2018-11-13T22:57:45.210Z,1.03
2018-11-13T23:00:36.365Z,1.10
2018-11-13T23:03:08.038Z,1.00
2018-11-13T23:05:36.520Z,1.10
2018-11-13T23:08:06.025Z,1.20
2018-11-13T23:10:34.439Z,1.00
2018-11-13T23:13:03.432Z,1.20
2018-11-13T23:15:31.642Z,1.00
2018-11-13T23:18:00.106Z,1.20
2018-11-13T23:20:28.707Z,1.10
2018-11-13T23:22:57.369Z,1.10
2018-11-13T23:25:25.809Z,1.10
2018-11-13T23:27:54.291Z,1.00
2018-11-13T23:30:23.945Z,1.07
2018-11-13T23:32:52.913Z,1.00
2018-11-13T23:35:21.830Z,0.90
2018-11-13T23:37:51.501Z,1.00
2018-11-13T23:40:21.880Z,1.00
2018-11-13T23:42:50.708Z,1.00
2018-11-13T23:45:20.558Z,1.00
2018-11-13T23:47:49.335Z,0.90
2018-11-13T23:50:18.014Z,1.00
2018-11-13T23:52:47.306Z,1.00
2018-11-13T23:55:16.342Z,1.00
2018-11-13T23:57:45.299Z,1.10
